sensor_id;sensor_type;location;lat;lon;timestamp;temperature;humidity
21255;DHT22;10785;50.674;17.954;2023-02-15T00:01:05;2.90;99.90
21255;DHT22;10785;50.674;17.954;2023-02-15T00:03:36;2.90;99.90
21255;DHT22;10785;50.674;17.954;2023-02-15T00:06:05;2.90;99.90
21255;DHT22;10785;50.674;17.954;2023-02-15T00:08:33;2.90;99.90
21255;DHT22;10785;50.674;17.954;2023-02-15T00:11:17;2.90;99.90
21255;DHT22;10785;50.674;17.954;2023-02-15T00:14:08;2.90;99.90
21255;DHT22;10785;50.674;17.954;2023-02-15T00:16:37;2.80;99.90
21255;DHT22;10785;50.674;17.954;2023-02-15T00:19:08;2.80;99.90
21255;DHT22;10785;50.674;17.954;2023-02-15T00:21:38;2.80;99.90
21255;DHT22;10785;50.674;17.954;2023-02-15T00:24:10;2.80;99.90
21255;DHT22;10785;50.674;17.954;2023-02-15T00:26:40;2.90;99.90
21255;DHT22;10785;50.674;17.954;2023-02-15T00:29:11;2.80;99.90
21255;DHT22;10785;50.674;17.954;2023-02-15T00:31:40;2.90;99.90
21255;DHT22;10785;50.674;17.954;2023-02-15T00:34:13;2.80;99.90
21255;DHT22;10785;50.674;17.954;2023-02-15T00:36:43;2.80;99.90
21255;DHT22;10785;50.674;17.954;2023-02-15T00:39:15;2.80;99.90
21255;DHT22;10785;50.674;17.954;2023-02-15T00:41:44;2.80;99.90
21255;DHT22;10785;50.674;17.954;2023-02-15T00:44:13;2.70;99.90
21255;DHT22;10785;50.674;17.954;2023-02-15T00:46:42;2.70;99.90
21255;DHT22;10785;50.674;17.954;2023-02-15T00:49:12;2.70;99.90
21255;DHT22;10785;50.674;17.954;2023-02-15T00:51:41;2.70;99.90
21255;DHT22;10785;50.674;17.954;2023-02-15T00:54:09;2.70;99.90
21255;DHT22;10785;50.674;17.954;2023-02-15T01:28:04;2.30;99.90
21255;DHT22;10785;50.674;17.954;2023-02-15T01:30:33;2.30;99.90
21255;DHT22;10785;50.674;17.954;2023-02-15T01:33:02;2.20;99.90
21255;DHT22;10785;50.674;17.954;2023-02-15T01:35:31;2.20;99.90
21255;DHT22;10785;50.674;17.954;2023-02-15T01:38:00;2.20;99.90
21255;DHT22;10785;50.674;17.954;2023-02-15T01:40:28;2.20;99.90
21255;DHT22;10785;50.674;17.954;2023-02-15T01:42:57;2.20;99.90
21255;DHT22;10785;50.674;17.954;2023-02-15T01:45:29;2.30;99.90
21255;DHT22;10785;50.674;17.954;2023-02-15T01:48:00;2.30;99.90
21255;DHT22;10785;50.674;17.954;2023-02-15T01:50:32;2.30;99.90
21255;DHT22;10785;50.674;17.954;2023-02-15T01:53:05;2.30;99.90
21255;DHT22;10785;50.674;17.954;2023-02-15T01:55:47;2.30;99.90
21255;DHT22;10785;50.674;17.954;2023-02-15T01:58:16;2.40;99.90
21255;DHT22;10785;50.674;17.954;2023-02-15T02:00:47;2.40;99.90
21255;DHT22;10785;50.674;17.954;2023-02-15T02:03:15;2.50;99.90
21255;DHT22;10785;50.674;17.954;2023-02-15T02:05:44;2.50;99.90
21255;DHT22;10785;50.674;17.954;2023-02-15T02:08:13;2.50;99.90
21255;DHT22;10785;50.674;17.954;2023-02-15T03:01:48;2.60;99.90
21255;DHT22;10785;50.674;17.954;2023-02-15T03:04:20;2.50;99.90
21255;DHT22;10785;50.674;17.954;2023-02-15T03:06:52;2.60;99.90
21255;DHT22;10785;50.674;17.954;2023-02-15T03:09:26;2.60;99.90
21255;DHT22;10785;50.674;17.954;2023-02-15T03:12:02;2.70;99.90
21255;DHT22;10785;50.674;17.954;2023-02-15T03:14:35;2.70;99.90
21255;DHT22;10785;50.674;17.954;2023-02-15T03:17:06;2.70;99.90
21255;DHT22;10785;50.674;17.954;2023-02-15T03:19:37;2.60;99.90
21255;DHT22;10785;50.674;17.954;2023-02-15T03:22:08;2.70;99.90
21255;DHT22;10785;50.674;17.954;2023-02-15T03:24:43;2.70;99.90
21255;DHT22;10785;50.674;17.954;2023-02-15T03:27:15;2.80;99.90
21255;DHT22;10785;50.674;17.954;2023-02-15T03:29:47;2.80;99.90
21255;DHT22;10785;50.674;17.954;2023-02-15T03:32:18;2.80;99.90
21255;DHT22;10785;50.674;17.954;2023-02-15T03:34:48;2.80;99.90
21255;DHT22;10785;50.674;17.954;2023-02-15T03:37:23;2.80;99.90
21255;DHT22;10785;50.674;17.954;2023-02-15T03:39:56;2.80;99.90
21255;DHT22;10785;50.674;17.954;2023-02-15T03:42:50;2.80;99.90
21255;DHT22;10785;50.674;17.954;2023-02-15T03:45:24;2.80;99.90
21255;DHT22;10785;50.674;17.954;2023-02-15T03:47:56;2.80;99.90
21255;DHT22;10785;50.674;17.954;2023-02-15T03:50:28;2.80;99.90
21255;DHT22;10785;50.674;17.954;2023-02-15T03:53:17;2.80;99.90
21255;DHT22;10785;50.674;17.954;2023-02-15T03:55:48;2.70;99.90
21255;DHT22;10785;50.674;17.954;2023-02-15T03:58:17;2.70;99.90
21255;DHT22;10785;50.674;17.954;2023-02-15T04:01:09;2.70;99.90
21255;DHT22;10785;50.674;17.954;2023-02-15T04:04:00;2.70;99.90
21255;DHT22;10785;50.674;17.954;2023-02-15T04:06:31;2.70;99.90
21255;DHT22;10785;50.674;17.954;2023-02-15T04:08:59;2.70;99.90
21255;DHT22;10785;50.674;17.954;2023-02-15T04:11:45;2.60;99.90
21255;DHT22;10785;50.674;17.954;2023-02-15T04:14:14;2.60;99.90
21255;DHT22;10785;50.674;17.954;2023-02-15T04:17:00;2.60;99.90
21255;DHT22;10785;50.674;17.954;2023-02-15T04:19:34;2.60;99.90
21255;DHT22;10785;50.674;17.954;2023-02-15T04:22:20;2.60;99.90
21255;DHT22;10785;50.674;17.954;2023-02-15T04:25:06;2.60;99.90
21255;DHT22;10785;50.674;17.954;2023-02-15T04:27:39;2.50;99.90
21255;DHT22;10785;50.674;17.954;2023-02-15T04:30:09;2.50;99.90
21255;DHT22;10785;50.674;17.954;2023-02-15T04:32:39;2.50;99.90
21255;DHT22;10785;50.674;17.954;2023-02-15T04:35:09;2.40;99.90
21255;DHT22;10785;50.674;17.954;2023-02-15T04:37:38;2.50;99.90
21255;DHT22;10785;50.674;17.954;2023-02-15T04:40:08;2.40;99.90
21255;DHT22;10785;50.674;17.954;2023-02-15T04:42:39;2.40;99.90
21255;DHT22;10785;50.674;17.954;2023-02-15T04:45:08;2.40;99.90
21255;DHT22;10785;50.674;17.954;2023-02-15T04:47:36;2.30;99.90
21255;DHT22;10785;50.674;17.954;2023-02-15T04:50:06;2.30;99.90
21255;DHT22;10785;50.674;17.954;2023-02-15T04:52:36;2.30;99.90
21255;DHT22;10785;50.674;17.954;2023-02-15T04:55:06;2.20;99.90
21255;DHT22;10785;50.674;17.954;2023-02-15T04:57:35;2.20;99.90
21255;DHT22;10785;50.674;17.954;2023-02-15T05:00:04;2.20;99.90
21255;DHT22;10785;50.674;17.954;2023-02-15T05:02:33;2.10;99.90
21255;DHT22;10785;50.674;17.954;2023-02-15T05:05:01;2.10;99.90
21255;DHT22;10785;50.674;17.954;2023-02-15T05:07:30;2.10;99.90
21255;DHT22;10785;50.674;17.954;2023-02-15T05:10:00;2.10;99.90
21255;DHT22;10785;50.674;17.954;2023-02-15T05:12:29;2.00;99.90
21255;DHT22;10785;50.674;17.954;2023-02-15T05:14:57;2.00;99.90
21255;DHT22;10785;50.674;17.954;2023-02-15T05:17:26;2.00;99.90
21255;DHT22;10785;50.674;17.954;2023-02-15T05:19:55;1.90;99.90
21255;DHT22;10785;50.674;17.954;2023-02-15T05:22:23;1.90;99.90
21255;DHT22;10785;50.674;17.954;2023-02-15T05:24:52;1.90;99.90
21255;DHT22;10785;50.674;17.954;2023-02-15T05:27:40;1.90;99.90
21255;DHT22;10785;50.674;17.954;2023-02-15T05:30:26;1.90;99.90
21255;DHT22;10785;50.674;17.954;2023-02-15T05:32:55;1.80;99.90
21255;DHT22;10785;50.674;17.954;2023-02-15T05:35:23;1.80;99.90
21255;DHT22;10785;50.674;17.954;2023-02-15T05:37:52;1.80;99.90
21255;DHT22;10785;50.674;17.954;2023-02-15T05:40:21;1.70;99.90
21255;DHT22;10785;50.674;17.954;2023-02-15T05:42:51;1.70;99.90
21255;DHT22;10785;50.674;17.954;2023-02-15T05:45:19;1.70;99.90
21255;DHT22;10785;50.674;17.954;2023-02-15T05:47:48;1.70;99.90
21255;DHT22;10785;50.674;17.954;2023-02-15T05:50:17;1.70;99.90
21255;DHT22;10785;50.674;17.954;2023-02-15T06:38:51;1.40;99.90
21255;DHT22;10785;50.674;17.954;2023-02-15T06:41:19;1.40;99.90
21255;DHT22;10785;50.674;17.954;2023-02-15T06:43:48;1.40;99.90
21255;DHT22;10785;50.674;17.954;2023-02-15T06:46:17;1.40;99.90
21255;DHT22;10785;50.674;17.954;2023-02-15T06:48:45;1.50;99.90
21255;DHT22;10785;50.674;17.954;2023-02-15T06:51:14;1.50;99.90
21255;DHT22;10785;50.674;17.954;2023-02-15T06:53:43;1.50;99.90
21255;DHT22;10785;50.674;17.954;2023-02-15T06:56:13;1.60;99.90
21255;DHT22;10785;50.674;17.954;2023-02-15T06:58:42;1.60;99.90
21255;DHT22;10785;50.674;17.954;2023-02-15T07:01:13;1.60;99.90
21255;DHT22;10785;50.674;17.954;2023-02-15T07:03:41;1.70;99.90
21255;DHT22;10785;50.674;17.954;2023-02-15T07:06:10;1.70;99.90
21255;DHT22;10785;50.674;17.954;2023-02-15T07:08:39;1.80;99.90
21255;DHT22;10785;50.674;17.954;2023-02-15T07:11:08;1.80;99.90
21255;DHT22;10785;50.674;17.954;2023-02-15T07:13:55;1.90;99.90
21255;DHT22;10785;50.674;17.954;2023-02-15T07:16:24;2.00;99.90
21255;DHT22;10785;50.674;17.954;2023-02-15T07:18:53;2.10;99.90
21255;DHT22;10785;50.674;17.954;2023-02-15T07:24:17;2.20;99.90
21255;DHT22;10785;50.674;17.954;2023-02-15T07:26:46;2.30;99.90
21255;DHT22;10785;50.674;17.954;2023-02-15T07:29:16;2.40;99.90
21255;DHT22;10785;50.674;17.954;2023-02-15T07:31:45;2.40;99.90
21255;DHT22;10785;50.674;17.954;2023-02-15T07:34:13;2.50;99.90
21255;DHT22;10785;50.674;17.954;2023-02-15T07:36:42;2.60;99.90
21255;DHT22;10785;50.674;17.954;2023-02-15T07:39:12;2.60;99.90
21255;DHT22;10785;50.674;17.954;2023-02-15T07:41:41;2.70;99.90
21255;DHT22;10785;50.674;17.954;2023-02-15T07:44:12;2.80;99.90
21255;DHT22;10785;50.674;17.954;2023-02-15T07:46:42;2.90;99.90
21255;DHT22;10785;50.674;17.954;2023-02-15T07:49:11;2.90;99.90
21255;DHT22;10785;50.674;17.954;2023-02-15T07:51:40;3.00;99.90
21255;DHT22;10785;50.674;17.954;2023-02-15T07:54:08;3.00;99.90
21255;DHT22;10785;50.674;17.954;2023-02-15T07:56:37;3.10;99.90
21255;DHT22;10785;50.674;17.954;2023-02-15T07:59:06;3.20;99.90
21255;DHT22;10785;50.674;17.954;2023-02-15T08:01:36;3.20;99.90
21255;DHT22;10785;50.674;17.954;2023-02-15T08:04:07;3.30;99.90
21255;DHT22;10785;50.674;17.954;2023-02-15T08:06:38;3.30;99.90
21255;DHT22;10785;50.674;17.954;2023-02-15T08:09:08;3.40;99.90
21255;DHT22;10785;50.674;17.954;2023-02-15T08:11:38;3.40;99.90
21255;DHT22;10785;50.674;17.954;2023-02-15T08:14:09;3.50;99.90
21255;DHT22;10785;50.674;17.954;2023-02-15T08:16:39;3.60;99.90
21255;DHT22;10785;50.674;17.954;2023-02-15T08:19:11;3.70;99.90
21255;DHT22;10785;50.674;17.954;2023-02-15T08:21:42;3.80;99.90
21255;DHT22;10785;50.674;17.954;2023-02-15T08:24:13;3.80;99.90
21255;DHT22;10785;50.674;17.954;2023-02-15T08:26:42;4.00;99.90
21255;DHT22;10785;50.674;17.954;2023-02-15T08:29:12;4.00;99.90
21255;DHT22;10785;50.674;17.954;2023-02-15T08:31:41;4.00;99.90
21255;DHT22;10785;50.674;17.954;2023-02-15T08:34:14;4.00;99.90
21255;DHT22;10785;50.674;17.954;2023-02-15T08:36:43;4.10;99.90
21255;DHT22;10785;50.674;17.954;2023-02-15T08:39:13;4.10;99.90
21255;DHT22;10785;50.674;17.954;2023-02-15T08:41:44;4.20;99.90
21255;DHT22;10785;50.674;17.954;2023-02-15T08:44:15;4.30;99.90
21255;DHT22;10785;50.674;17.954;2023-02-15T08:46:45;4.30;99.90
21255;DHT22;10785;50.674;17.954;2023-02-15T08:49:16;4.40;99.90
21255;DHT22;10785;50.674;17.954;2023-02-15T08:51:46;4.40;99.90
21255;DHT22;10785;50.674;17.954;2023-02-15T08:54:16;4.40;99.90
21255;DHT22;10785;50.674;17.954;2023-02-15T08:56:45;4.50;99.90
21255;DHT22;10785;50.674;17.954;2023-02-15T08:59:16;4.50;99.90
21255;DHT22;10785;50.674;17.954;2023-02-15T09:17:16;4.60;99.90
21255;DHT22;10785;50.674;17.954;2023-02-15T09:19:45;4.50;99.90
21255;DHT22;10785;50.674;17.954;2023-02-15T09:22:13;4.50;99.90
21255;DHT22;10785;50.674;17.954;2023-02-15T09:24:42;4.60;99.90
21255;DHT22;10785;50.674;17.954;2023-02-15T09:27:11;4.60;99.90
21255;DHT22;10785;50.674;17.954;2023-02-15T09:29:53;4.80;99.90
21255;DHT22;10785;50.674;17.954;2023-02-15T09:32:23;4.80;99.90
21255;DHT22;10785;50.674;17.954;2023-02-15T09:34:52;4.70;99.90
21255;DHT22;10785;50.674;17.954;2023-02-15T09:37:20;4.90;99.90
21255;DHT22;10785;50.674;17.954;2023-02-15T09:39:49;5.00;99.90
21255;DHT22;10785;50.674;17.954;2023-02-15T09:42:35;5.10;99.90
21255;DHT22;10785;50.674;17.954;2023-02-15T09:51:33;5.40;99.90
21255;DHT22;10785;50.674;17.954;2023-02-15T09:54:13;5.50;99.90
21255;DHT22;10785;50.674;17.954;2023-02-15T09:56:49;5.50;99.90
21255;DHT22;10785;50.674;17.954;2023-02-15T09:59:28;5.60;99.90
21255;DHT22;10785;50.674;17.954;2023-02-15T10:02:11;5.70;99.90
21255;DHT22;10785;50.674;17.954;2023-02-15T10:04:52;5.90;99.90
21255;DHT22;10785;50.674;17.954;2023-02-15T10:07:44;6.00;99.90
21255;DHT22;10785;50.674;17.954;2023-02-15T10:10:26;6.10;99.90
21255;DHT22;10785;50.674;17.954;2023-02-15T10:13:11;6.10;99.90
21255;DHT22;10785;50.674;17.954;2023-02-15T10:15:52;6.20;99.90
21255;DHT22;10785;50.674;17.954;2023-02-15T10:18:44;6.20;99.90
21255;DHT22;10785;50.674;17.954;2023-02-15T10:21:24;6.20;99.90
21255;DHT22;10785;50.674;17.954;2023-02-15T10:26:49;6.30;99.90
21255;DHT22;10785;50.674;17.954;2023-02-15T10:29:26;6.40;99.90
21255;DHT22;10785;50.674;17.954;2023-02-15T10:32:07;6.50;99.90
21255;DHT22;10785;50.674;17.954;2023-02-15T10:34:38;6.50;99.90
21255;DHT22;10785;50.674;17.954;2023-02-15T10:37:23;6.50;99.90
21255;DHT22;10785;50.674;17.954;2023-02-15T10:40:02;6.60;99.90
21255;DHT22;10785;50.674;17.954;2023-02-15T10:42:43;6.80;99.90
21255;DHT22;10785;50.674;17.954;2023-02-15T10:45:23;6.90;99.90
21255;DHT22;10785;50.674;17.954;2023-02-15T10:48:18;7.00;99.90
21255;DHT22;10785;50.674;17.954;2023-02-15T10:50:50;7.20;99.90
21255;DHT22;10785;50.674;17.954;2023-02-15T10:56:34;7.40;99.90
21255;DHT22;10785;50.674;17.954;2023-02-15T10:59:25;7.40;99.90
21255;DHT22;10785;50.674;17.954;2023-02-15T11:02:03;7.40;99.90
21255;DHT22;10785;50.674;17.954;2023-02-15T11:04:41;7.30;99.90
21255;DHT22;10785;50.674;17.954;2023-02-15T11:07:17;7.20;99.90
21255;DHT22;10785;50.674;17.954;2023-02-15T11:09:50;7.10;99.90
21255;DHT22;10785;50.674;17.954;2023-02-15T11:12:24;7.10;99.90
21255;DHT22;10785;50.674;17.954;2023-02-15T11:14:58;7.10;99.90
21255;DHT22;10785;50.674;17.954;2023-02-15T11:17:35;7.10;99.90
21255;DHT22;10785;50.674;17.954;2023-02-15T11:32:47;7.10;99.90
21255;DHT22;10785;50.674;17.954;2023-02-15T11:35:23;7.20;99.90
21255;DHT22;10785;50.674;17.954;2023-02-15T11:37:58;7.20;99.90
21255;DHT22;10785;50.674;17.954;2023-02-15T11:40:32;7.20;99.90
21255;DHT22;10785;50.674;17.954;2023-02-15T11:43:06;7.30;99.90
21255;DHT22;10785;50.674;17.954;2023-02-15T11:45:35;7.30;99.90
21255;DHT22;10785;50.674;17.954;2023-02-15T11:48:11;7.20;99.90
21255;DHT22;10785;50.674;17.954;2023-02-15T11:50:42;7.30;99.90
21255;DHT22;10785;50.674;17.954;2023-02-15T11:53:12;7.30;99.90
21255;DHT22;10785;50.674;17.954;2023-02-15T11:55:56;7.20;99.90
21255;DHT22;10785;50.674;17.954;2023-02-15T11:58:29;7.30;99.90
21255;DHT22;10785;50.674;17.954;2023-02-15T12:01:08;7.30;99.90
21255;DHT22;10785;50.674;17.954;2023-02-15T12:03:45;7.40;99.90
21255;DHT22;10785;50.674;17.954;2023-02-15T12:06:25;7.40;99.90
21255;DHT22;10785;50.674;17.954;2023-02-15T12:09:01;7.50;99.90
21255;DHT22;10785;50.674;17.954;2023-02-15T12:11:35;7.70;99.90
21255;DHT22;10785;50.674;17.954;2023-02-15T12:14:06;7.70;99.90
21255;DHT22;10785;50.674;17.954;2023-02-15T12:16:41;7.60;99.90
21255;DHT22;10785;50.674;17.954;2023-02-15T12:19:27;7.60;99.90
21255;DHT22;10785;50.674;17.954;2023-02-15T12:21:58;7.60;99.90
21255;DHT22;10785;50.674;17.954;2023-02-15T12:24:29;7.70;99.90
21255;DHT22;10785;50.674;17.954;2023-02-15T12:27:02;7.70;99.90
21255;DHT22;10785;50.674;17.954;2023-02-15T12:29:35;7.80;99.90
21255;DHT22;10785;50.674;17.954;2023-02-15T12:32:05;7.90;99.90
21255;DHT22;10785;50.674;17.954;2023-02-15T12:34:38;8.00;99.90
21255;DHT22;10785;50.674;17.954;2023-02-15T12:37:15;8.00;99.90
21255;DHT22;10785;50.674;17.954;2023-02-15T12:39:52;8.00;99.30
21255;DHT22;10785;50.674;17.954;2023-02-15T12:42:22;8.00;99.50
21255;DHT22;10785;50.674;17.954;2023-02-15T12:44:59;8.10;99.70
21255;DHT22;10785;50.674;17.954;2023-02-15T12:47:31;8.10;99.50
21255;DHT22;10785;50.674;17.954;2023-02-15T12:50:08;8.20;99.20
21255;DHT22;10785;50.674;17.954;2023-02-15T12:52:45;8.20;99.40
21255;DHT22;10785;50.674;17.954;2023-02-15T12:55:21;8.20;99.80
21255;DHT22;10785;50.674;17.954;2023-02-15T12:58:05;8.20;99.90
21255;DHT22;10785;50.674;17.954;2023-02-15T13:00:34;8.30;99.50
21255;DHT22;10785;50.674;17.954;2023-02-15T13:03:04;8.40;99.80
21255;DHT22;10785;50.674;17.954;2023-02-15T13:05:37;8.50;98.00
21255;DHT22;10785;50.674;17.954;2023-02-15T13:10:54;8.70;96.80
21255;DHT22;10785;50.674;17.954;2023-02-15T13:13:26;8.60;97.30
21255;DHT22;10785;50.674;17.954;2023-02-15T13:15:59;8.70;96.40
21255;DHT22;10785;50.674;17.954;2023-02-15T13:18:32;8.80;95.60
21255;DHT22;10785;50.674;17.954;2023-02-15T13:21:10;8.90;94.80
21255;DHT22;10785;50.674;17.954;2023-02-15T13:23:43;8.80;94.10
21255;DHT22;10785;50.674;17.954;2023-02-15T13:26:16;8.70;94.40
21255;DHT22;10785;50.674;17.954;2023-02-15T13:28:51;8.80;94.40
21255;DHT22;10785;50.674;17.954;2023-02-15T13:31:25;8.80;93.00
21255;DHT22;10785;50.674;17.954;2023-02-15T13:33:58;8.70;91.70
21255;DHT22;10785;50.674;17.954;2023-02-15T13:36:35;8.70;90.60
21255;DHT22;10785;50.674;17.954;2023-02-15T13:39:16;8.60;89.00
21255;DHT22;10785;50.674;17.954;2023-02-15T13:41:55;8.50;88.70
21255;DHT22;10785;50.674;17.954;2023-02-15T13:44:42;8.50;88.60
21255;DHT22;10785;50.674;17.954;2023-02-15T13:47:21;8.50;89.70
21255;DHT22;10785;50.674;17.954;2023-02-15T13:50:10;8.60;90.10
21255;DHT22;10785;50.674;17.954;2023-02-15T13:52:48;8.50;89.90
21255;DHT22;10785;50.674;17.954;2023-02-15T13:55:28;8.50;90.40
21255;DHT22;10785;50.674;17.954;2023-02-15T13:58:33;8.50;90.60
21255;DHT22;10785;50.674;17.954;2023-02-15T14:01:18;8.40;90.60
21255;DHT22;10785;50.674;17.954;2023-02-15T14:06:54;8.40;89.40
21255;DHT22;10785;50.674;17.954;2023-02-15T14:09:37;8.30;90.50
21255;DHT22;10785;50.674;17.954;2023-02-15T14:15:18;8.30;91.00
21255;DHT22;10785;50.674;17.954;2023-02-15T14:17:59;8.20;91.30
21255;DHT22;10785;50.674;17.954;2023-02-15T14:20:39;8.20;92.00
21255;DHT22;10785;50.674;17.954;2023-02-15T14:23:16;8.20;92.70
21255;DHT22;10785;50.674;17.954;2023-02-15T14:25:51;8.10;91.90
21255;DHT22;10785;50.674;17.954;2023-02-15T14:28:27;8.10;92.10
21255;DHT22;10785;50.674;17.954;2023-02-15T14:30:57;8.00;91.70
21255;DHT22;10785;50.674;17.954;2023-02-15T14:33:32;7.90;92.30
21255;DHT22;10785;50.674;17.954;2023-02-15T14:36:05;8.00;93.00
21255;DHT22;10785;50.674;17.954;2023-02-15T14:38:50;7.90;93.50
21255;DHT22;10785;50.674;17.954;2023-02-15T14:41:28;7.90;94.40
21255;DHT22;10785;50.674;17.954;2023-02-15T14:44:01;7.80;95.30
21255;DHT22;10785;50.674;17.954;2023-02-15T14:46:38;7.80;95.70
21255;DHT22;10785;50.674;17.954;2023-02-15T15:08:04;7.50;98.10
21255;DHT22;10785;50.674;17.954;2023-02-15T15:10:40;7.40;97.80
21255;DHT22;10785;50.674;17.954;2023-02-15T15:13:37;7.30;98.40
21255;DHT22;10785;50.674;17.954;2023-02-15T15:16:34;7.20;99.60
21255;DHT22;10785;50.674;17.954;2023-02-15T15:54:05;5.70;99.90
21255;DHT22;10785;50.674;17.954;2023-02-15T15:56:36;5.60;99.90
21255;DHT22;10785;50.674;17.954;2023-02-15T15:59:06;5.50;99.90
21255;DHT22;10785;50.674;17.954;2023-02-15T16:01:39;5.40;99.90
21255;DHT22;10785;50.674;17.954;2023-02-15T16:04:13;5.30;99.90
21255;DHT22;10785;50.674;17.954;2023-02-15T16:06:50;5.20;99.90
21255;DHT22;10785;50.674;17.954;2023-02-15T16:09:22;5.10;99.90
21255;DHT22;10785;50.674;17.954;2023-02-15T16:11:52;5.00;99.90
21255;DHT22;10785;50.674;17.954;2023-02-15T16:14:26;4.90;99.90
21255;DHT22;10785;50.674;17.954;2023-02-15T16:16:58;4.80;99.90
21255;DHT22;10785;50.674;17.954;2023-02-15T16:19:32;4.70;99.90
21255;DHT22;10785;50.674;17.954;2023-02-15T16:22:03;4.60;99.90
21255;DHT22;10785;50.674;17.954;2023-02-15T16:27:37;4.50;99.90
21255;DHT22;10785;50.674;17.954;2023-02-15T16:32:55;4.40;99.90
21255;DHT22;10785;50.674;17.954;2023-02-15T16:35:31;4.30;99.90
21255;DHT22;10785;50.674;17.954;2023-02-15T16:38:01;4.20;99.90
21255;DHT22;10785;50.674;17.954;2023-02-15T16:40:40;4.10;99.90
21255;DHT22;10785;50.674;17.954;2023-02-15T16:43:16;4.00;99.90
21255;DHT22;10785;50.674;17.954;2023-02-15T16:45:45;4.00;99.90
21255;DHT22;10785;50.674;17.954;2023-02-15T16:48:19;3.90;99.90
21255;DHT22;10785;50.674;17.954;2023-02-15T16:57:17;3.70;99.90
21255;DHT22;10785;50.674;17.954;2023-02-15T16:59:48;3.60;99.90
21255;DHT22;10785;50.674;17.954;2023-02-15T17:02:19;3.50;99.90
21255;DHT22;10785;50.674;17.954;2023-02-15T17:05:15;3.50;99.90
21255;DHT22;10785;50.674;17.954;2023-02-15T17:08:04;3.40;99.90
21255;DHT22;10785;50.674;17.954;2023-02-15T17:10:34;3.30;99.90
21255;DHT22;10785;50.674;17.954;2023-02-15T17:13:10;3.30;99.90
21255;DHT22;10785;50.674;17.954;2023-02-15T17:15:40;3.30;99.90
21255;DHT22;10785;50.674;17.954;2023-02-15T17:18:15;3.20;99.90
21255;DHT22;10785;50.674;17.954;2023-02-15T17:20:45;3.20;99.90
21255;DHT22;10785;50.674;17.954;2023-02-15T17:23:22;3.10;99.90
21255;DHT22;10785;50.674;17.954;2023-02-15T17:25:54;3.10;99.90
21255;DHT22;10785;50.674;17.954;2023-02-15T17:28:25;3.00;99.90
21255;DHT22;10785;50.674;17.954;2023-02-15T17:30:55;3.00;99.90
21255;DHT22;10785;50.674;17.954;2023-02-15T17:33:28;2.90;99.90
21255;DHT22;10785;50.674;17.954;2023-02-15T17:36:05;2.90;99.90
21255;DHT22;10785;50.674;17.954;2023-02-15T17:38:37;2.80;99.90
21255;DHT22;10785;50.674;17.954;2023-02-15T17:41:06;2.80;99.90
21255;DHT22;10785;50.674;17.954;2023-02-15T17:43:37;2.70;99.90
21255;DHT22;10785;50.674;17.954;2023-02-15T17:46:07;2.70;99.90
21255;DHT22;10785;50.674;17.954;2023-02-15T17:48:39;2.60;99.90
21255;DHT22;10785;50.674;17.954;2023-02-15T17:51:12;2.60;99.90
21255;DHT22;10785;50.674;17.954;2023-02-15T17:53:41;2.60;99.90
21255;DHT22;10785;50.674;17.954;2023-02-15T17:56:30;2.60;99.90
21255;DHT22;10785;50.674;17.954;2023-02-15T17:58:59;2.50;99.90
21255;DHT22;10785;50.674;17.954;2023-02-15T18:01:28;2.50;99.90
21255;DHT22;10785;50.674;17.954;2023-02-15T18:04:14;2.50;99.90
21255;DHT22;10785;50.674;17.954;2023-02-15T18:07:00;2.40;99.90
21255;DHT22;10785;50.674;17.954;2023-02-15T18:09:46;2.40;99.90
21255;DHT22;10785;50.674;17.954;2023-02-15T18:12:34;2.40;99.90
21255;DHT22;10785;50.674;17.954;2023-02-15T18:15:06;2.30;99.90
21255;DHT22;10785;50.674;17.954;2023-02-15T18:17:40;2.20;99.90
21255;DHT22;10785;50.674;17.954;2023-02-15T18:20:17;2.20;99.90
21255;DHT22;10785;50.674;17.954;2023-02-15T18:22:46;2.20;99.90
21255;DHT22;10785;50.674;17.954;2023-02-15T18:25:18;2.10;99.90
21255;DHT22;10785;50.674;17.954;2023-02-15T18:27:47;2.10;99.90
21255;DHT22;10785;50.674;17.954;2023-02-15T18:30:19;2.00;99.90
21255;DHT22;10785;50.674;17.954;2023-02-15T18:32:50;2.00;99.90
21255;DHT22;10785;50.674;17.954;2023-02-15T18:35:21;2.00;99.90
21255;DHT22;10785;50.674;17.954;2023-02-15T18:37:51;2.00;99.90
21255;DHT22;10785;50.674;17.954;2023-02-15T18:40:24;1.90;99.90
21255;DHT22;10785;50.674;17.954;2023-02-15T18:42:52;1.90;99.90
21255;DHT22;10785;50.674;17.954;2023-02-15T18:45:26;1.80;99.90
21255;DHT22;10785;50.674;17.954;2023-02-15T18:47:58;1.90;99.90
21255;DHT22;10785;50.674;17.954;2023-02-15T18:50:30;1.80;99.90
21255;DHT22;10785;50.674;17.954;2023-02-15T18:53:01;1.80;99.90
21255;DHT22;10785;50.674;17.954;2023-02-15T18:55:30;1.70;99.90
21255;DHT22;10785;50.674;17.954;2023-02-15T18:58:00;1.70;99.90
21255;DHT22;10785;50.674;17.954;2023-02-15T19:00:32;1.80;99.90
21255;DHT22;10785;50.674;17.954;2023-02-15T19:03:02;1.70;99.90
21255;DHT22;10785;50.674;17.954;2023-02-15T19:05:31;1.70;99.90
21255;DHT22;10785;50.674;17.954;2023-02-15T19:08:01;1.70;99.90
21255;DHT22;10785;50.674;17.954;2023-02-15T19:10:31;1.60;99.90
21255;DHT22;10785;50.674;17.954;2023-02-15T19:13:00;1.60;99.90
21255;DHT22;10785;50.674;17.954;2023-02-15T19:15:30;1.60;99.90
21255;DHT22;10785;50.674;17.954;2023-02-15T19:17:59;1.60;99.90
21255;DHT22;10785;50.674;17.954;2023-02-15T19:20:30;1.60;99.90
21255;DHT22;10785;50.674;17.954;2023-02-15T19:23:00;1.50;99.90
21255;DHT22;10785;50.674;17.954;2023-02-15T19:25:30;1.50;99.90
21255;DHT22;10785;50.674;17.954;2023-02-15T19:28:00;1.50;99.90
21255;DHT22;10785;50.674;17.954;2023-02-15T19:30:33;1.50;99.90
21255;DHT22;10785;50.674;17.954;2023-02-15T19:33:02;1.40;99.90
21255;DHT22;10785;50.674;17.954;2023-02-15T19:35:33;1.40;99.90
21255;DHT22;10785;50.674;17.954;2023-02-15T19:38:06;1.40;99.90
21255;DHT22;10785;50.674;17.954;2023-02-15T19:40:35;1.30;99.90
21255;DHT22;10785;50.674;17.954;2023-02-15T19:43:10;1.30;99.90
21255;DHT22;10785;50.674;17.954;2023-02-15T19:45:45;1.30;99.90
21255;DHT22;10785;50.674;17.954;2023-02-15T19:48:13;1.30;99.90
21255;DHT22;10785;50.674;17.954;2023-02-15T19:50:42;1.30;99.90
21255;DHT22;10785;50.674;17.954;2023-02-15T19:53:19;1.30;99.90
21255;DHT22;10785;50.674;17.954;2023-02-15T19:55:49;1.20;99.90
21255;DHT22;10785;50.674;17.954;2023-02-15T19:58:18;1.20;99.90
21255;DHT22;10785;50.674;17.954;2023-02-15T20:00:50;1.10;99.90
21255;DHT22;10785;50.674;17.954;2023-02-15T20:03:19;1.10;99.90
21255;DHT22;10785;50.674;17.954;2023-02-15T20:05:47;1.10;99.90
21255;DHT22;10785;50.674;17.954;2023-02-15T20:08:21;1.00;99.90
21255;DHT22;10785;50.674;17.954;2023-02-15T20:10:52;1.00;99.90
21255;DHT22;10785;50.674;17.954;2023-02-15T20:13:22;1.00;99.90
21255;DHT22;10785;50.674;17.954;2023-02-15T20:15:57;1.00;99.90